Briefing drone pour La ravoire

Rechercher une autre localisation

Conditions de vol :


Nous sommes le : Dimanche 09 mai 2021
Il est 01:05 UTC (03:05 LT)

Lever de soleil : 03:45 UTC (05:45 LT)
Coucher de soleil : 19:19 UTC (21:19 LT)

Météo

L'essentiel des conditions de vol

VIGILANCE MÉTÉO FRANCE - Savoie (73)
Pas de vigilances particulieres
CARTE TEMSI
CARTES DES FRONTS
METAR de LFLB
LFLB 090100Z AUTO VRB02KT 9999 4500 NSC 11/10 Q1014

Date d'émission: 09/05/2021
Heure d'émission: 01:00 UTC
Vent: Variable 2 KT (4 km/h)
Visibilité horizontale: > 10 km
Plafond : Pas de nuages significatifs (NSC)
Température: 11 °C
Point de rosée: 10 °C
Humidité: 94%
Pression (QNH): 1014 hPa
TAF de LFLB
LFLB 081919Z 0819/0915 CNL= LFLS 081920Z 0819/0915 CNL

Conditions prévues :

Heure d'émission : Bulletin éffectué le 08 à 19:00 UTC
Prévision : Valide du 08 a 19:00 UTC au 09 a 15:00 UTC
Nuages : à 0ft (0 m)
à 0ft (0 m)
à 0ft (0 m)
à 0ft (0 m)
WEBCAM POUR LA RAVOIRE

Réglementation

Voler en sécurité

CARTES AERONAUTIQUE 1/500.000
CARTES VAC (LFLB)
SUP AIP




Chargement des AIP...
NOTAM (LA RAVOIRE + Terrain à proximité / FIR )




Chargement des NOTAMS...
CONTACT PREFECTURE 73


Avertissement : Les données mises à disposition sont indicatives. Oxygène Drone ne pourra être tenu responsable de dégâts causés aux biens et aux personnes.